createdAt,value
2023-02-12T00:01:29.257Z,36.37
2023-02-12T00:03:00.868Z,36.53
2023-02-12T00:04:32.485Z,36.49
2023-02-12T00:06:04.111Z,36.81
2023-02-12T00:07:35.630Z,36.37
2023-02-12T00:09:07.192Z,36.42
2023-02-12T00:10:43.191Z,36.42
2023-02-12T00:12:14.886Z,36.59
2023-02-12T00:13:46.532Z,36.84
2023-02-12T00:15:18.059Z,36.54
2023-02-12T00:16:49.615Z,36.41
2023-02-12T00:18:21.227Z,36.50
2023-02-12T00:19:52.845Z,36.51
2023-02-12T00:21:24.504Z,36.39
2023-02-12T00:22:56.245Z,36.86
2023-02-12T00:24:28.048Z,36.68
2023-02-12T00:25:59.629Z,36.54
2023-02-12T00:27:34.198Z,36.38
2023-02-12T00:29:05.725Z,36.86
2023-02-12T00:30:37.484Z,36.78
2023-02-12T00:32:09.066Z,36.66
2023-02-12T00:33:40.654Z,37.05
2023-02-12T00:35:12.442Z,36.98
2023-02-12T00:36:43.987Z,36.96
2023-02-12T00:38:16.511Z,37.02
2023-02-12T00:39:48.048Z,36.93
2023-02-12T00:41:19.719Z,36.95
2023-02-12T00:42:51.311Z,37.17
2023-02-12T00:44:22.988Z,37.10
2023-02-12T00:45:55.651Z,36.87
2023-02-12T00:47:27.350Z,37.10
2023-02-12T00:48:58.927Z,36.61
2023-02-12T00:50:31.908Z,36.99
2023-02-12T00:52:03.931Z,36.68
2023-02-12T00:53:35.473Z,36.52
2023-02-12T00:55:07.133Z,36.24
2023-02-12T00:56:38.713Z,36.64
2023-02-12T00:58:10.365Z,36.54
2023-02-12T00:59:43.064Z,36.60
2023-02-12T01:01:14.720Z,37.07
2023-02-12T01:02:46.701Z,37.20
2023-02-12T01:04:18.362Z,36.89
2023-02-12T01:05:49.933Z,37.08
2023-02-12T01:07:21.597Z,36.97
2023-02-12T01:08:53.270Z,37.02
2023-02-12T01:10:24.879Z,36.80
2023-02-12T01:11:56.423Z,36.61
2023-02-12T01:13:28.121Z,37.24
2023-02-12T01:14:59.707Z,37.12
2023-02-12T01:16:34.012Z,37.66
2023-02-12T01:18:05.634Z,37.61
2023-02-12T01:19:37.206Z,37.26
2023-02-12T01:21:12.698Z,37.06
2023-02-12T01:22:44.430Z,36.90
2023-02-12T01:24:15.974Z,37.25
2023-02-12T01:25:47.860Z,37.02
2023-02-12T01:27:19.458Z,37.54
2023-02-12T01:28:54.984Z,37.28
2023-02-12T01:30:26.595Z,37.43
2023-02-12T01:31:58.445Z,37.66
2023-02-12T01:33:29.965Z,37.52
2023-02-12T01:35:01.764Z,37.26
2023-02-12T01:36:33.347Z,37.56
2023-02-12T01:38:04.856Z,37.60
2023-02-12T01:39:36.457Z,37.85
2023-02-12T01:41:11.829Z,37.77
2023-02-12T01:42:43.400Z,37.73
2023-02-12T01:44:16.258Z,37.36
2023-02-12T01:45:48.728Z,37.31
2023-02-12T01:47:20.335Z,37.73
2023-02-12T01:48:51.872Z,37.47
2023-02-12T01:50:23.533Z,37.33
2023-02-12T01:52:15.803Z,37.35
2023-02-12T01:53:48.745Z,37.27
2023-02-12T01:55:20.326Z,37.79
2023-02-12T01:56:51.885Z,37.70
2023-02-12T01:58:24.197Z,37.91
2023-02-12T01:59:56.396Z,38.10
2023-02-12T02:01:28.957Z,38.25
2023-02-12T02:03:00.666Z,38.09
2023-02-12T02:04:33.295Z,38.50
2023-02-12T02:06:10.112Z,38.16
2023-02-12T02:07:42.315Z,38.03
2023-02-12T02:09:13.886Z,38.67
2023-02-12T02:10:45.430Z,38.15
2023-02-12T02:12:35.622Z,38.07
2023-02-12T02:14:25.836Z,38.03
2023-02-12T02:15:58.720Z,38.52
2023-02-12T02:18:02.853Z,38.13
2023-02-12T02:19:39.814Z,38.69
2023-02-12T02:21:11.337Z,38.61
2023-02-12T02:22:49.099Z,38.75
2023-02-12T02:24:31.834Z,38.60
2023-02-12T02:26:42.064Z,38.14
2023-02-12T02:28:19.870Z,38.65
2023-02-12T02:30:06.725Z,38.39
2023-02-12T02:31:44.816Z,38.47
2023-02-12T02:33:36.690Z,37.78
2023-02-12T02:35:12.156Z,37.83
2023-02-12T02:36:59.689Z,38.50
2023-02-12T02:38:34.333Z,38.44
2023-02-12T02:40:10.093Z,38.20
2023-02-12T02:42:02.003Z,38.35
2023-02-12T02:43:35.327Z,38.14
2023-02-12T02:45:13.792Z,38.53
2023-02-12T02:46:46.247Z,38.52
2023-02-12T02:48:22.508Z,38.50
2023-02-12T02:49:56.546Z,38.43
2023-02-12T02:51:30.852Z,38.56
2023-02-12T02:53:03.120Z,38.88
2023-02-12T02:54:36.264Z,38.13
2023-02-12T02:56:08.684Z,38.40
2023-02-12T02:57:46.342Z,38.59
2023-02-12T02:59:24.743Z,38.80
2023-02-12T03:01:00.869Z,38.14
2023-02-12T03:02:33.261Z,38.81
2023-02-12T03:04:08.505Z,38.45
2023-02-12T03:05:40.692Z,38.31
2023-02-12T03:07:16.995Z,39.03
2023-02-12T03:08:53.316Z,38.82
2023-02-12T03:10:28.286Z,39.09
2023-02-12T03:12:01.546Z,39.00
2023-02-12T03:13:34.884Z,38.48
2023-02-12T03:15:08.681Z,38.81
2023-02-12T03:16:41.638Z,38.85
2023-02-12T03:18:15.206Z,38.74
2023-02-12T03:19:51.272Z,39.25
2023-02-12T03:21:27.652Z,39.31
2023-02-12T03:23:04.458Z,39.12
2023-02-12T03:24:36.564Z,38.62
2023-02-12T03:26:08.846Z,39.51
2023-02-12T03:27:44.499Z,39.41
2023-02-12T03:29:15.976Z,39.02
2023-02-12T03:30:59.429Z,39.59
2023-02-12T03:32:33.822Z,39.60
2023-02-12T03:34:11.253Z,38.83
2023-02-12T03:35:44.075Z,38.93
2023-02-12T03:37:19.841Z,39.06
2023-02-12T03:38:54.442Z,39.31
2023-02-12T03:40:29.106Z,39.11
2023-02-12T03:42:00.677Z,39.18
2023-02-12T03:43:38.759Z,39.70
2023-02-12T03:45:10.284Z,39.89
2023-02-12T03:46:47.341Z,39.64
2023-02-12T03:48:20.471Z,39.67
2023-02-12T03:50:00.295Z,39.74
2023-02-12T03:51:35.358Z,39.78
2023-02-12T03:53:06.895Z,39.07
2023-02-12T03:54:38.486Z,39.91
2023-02-12T03:56:13.216Z,39.28
2023-02-12T03:57:45.800Z,39.30
2023-02-12T03:59:17.306Z,39.19
2023-02-12T04:00:48.880Z,39.44
2023-02-12T04:02:20.552Z,40.39
2023-02-12T04:03:52.207Z,39.91
2023-02-12T04:05:27.137Z,39.95
2023-02-12T04:06:58.712Z,40.37
2023-02-12T04:08:30.236Z,39.56
2023-02-12T04:10:01.860Z,39.88
2023-02-12T04:11:42.426Z,39.76
2023-02-12T04:13:19.554Z,40.10
2023-02-12T04:15:03.086Z,39.37
2023-02-12T04:16:41.349Z,40.04
2023-02-12T04:18:20.506Z,39.34
2023-02-12T04:20:01.910Z,40.10
2023-02-12T04:21:33.389Z,40.38
2023-02-12T04:23:13.977Z,39.86
2023-02-12T04:25:04.263Z,40.53
2023-02-12T04:26:54.689Z,40.50
2023-02-12T04:28:26.201Z,40.29
2023-02-12T04:30:16.624Z,40.45
2023-02-12T04:31:56.143Z,40.66
2023-02-12T04:33:28.952Z,39.99
2023-02-12T04:35:18.836Z,40.58
2023-02-12T04:36:59.211Z,40.73
2023-02-12T04:38:36.162Z,40.61
2023-02-12T04:40:08.790Z,40.48
2023-02-12T04:41:40.284Z,40.14
2023-02-12T04:43:11.896Z,40.36
2023-02-12T04:44:43.579Z,40.14
2023-02-12T04:46:15.648Z,40.47
2023-02-12T04:47:47.248Z,40.50
2023-02-12T04:49:19.473Z,40.18
2023-02-12T04:50:50.948Z,40.41
2023-02-12T04:52:22.512Z,40.23
2023-02-12T04:53:54.014Z,40.46
2023-02-12T04:55:25.524Z,40.60
2023-02-12T04:56:57.061Z,40.68
2023-02-12T04:58:28.632Z,40.61
2023-02-12T05:00:00.174Z,40.73
2023-02-12T05:01:33.261Z,40.72
2023-02-12T05:03:04.933Z,40.99
2023-02-12T05:04:36.377Z,40.85
2023-02-12T05:06:08.386Z,40.96
2023-02-12T05:07:40.106Z,40.50
2023-02-12T05:09:18.238Z,40.68
2023-02-12T05:10:49.696Z,40.67
2023-02-12T05:12:21.225Z,40.99
2023-02-12T05:13:52.881Z,40.78
2023-02-12T05:15:24.466Z,40.97
2023-02-12T05:16:55.957Z,40.67
2023-02-12T05:18:27.468Z,40.88
2023-02-12T05:19:58.998Z,40.82
2023-02-12T05:21:30.494Z,40.71
2023-02-12T05:23:01.949Z,40.66
2023-02-12T05:24:33.515Z,40.72
2023-02-12T05:26:06.073Z,40.70
2023-02-12T05:27:37.528Z,40.60
2023-02-12T05:29:08.994Z,40.43
2023-02-12T05:30:40.498Z,40.49
2023-02-12T05:32:12.104Z,40.39
2023-02-12T05:33:44.055Z,40.47
2023-02-12T05:35:15.552Z,40.32
2023-02-12T05:36:47.070Z,40.26
2023-02-12T05:38:18.756Z,40.48
2023-02-12T05:39:50.730Z,40.23
2023-02-12T05:41:23.050Z,40.48
2023-02-12T05:42:54.576Z,40.63
2023-02-12T05:44:26.214Z,40.79
2023-02-12T05:46:01.008Z,40.72
2023-02-12T05:47:32.528Z,40.67
2023-02-12T05:49:04.182Z,41.10
2023-02-12T05:50:35.692Z,40.88
2023-02-12T05:52:07.142Z,41.03
2023-02-12T05:53:38.805Z,41.06
2023-02-12T05:55:10.265Z,40.88
2023-02-12T05:56:45.578Z,41.14
2023-02-12T05:58:17.048Z,41.20
2023-02-12T05:59:48.580Z,40.90
2023-02-12T06:01:21.094Z,41.25
2023-02-12T06:02:52.666Z,41.24
2023-02-12T06:04:28.030Z,41.12
2023-02-12T06:05:59.680Z,41.01
2023-02-12T06:07:31.179Z,41.26
2023-02-12T06:09:02.702Z,41.53
2023-02-12T06:10:34.226Z,41.43
2023-02-12T06:12:05.798Z,41.37
2023-02-12T06:13:37.445Z,41.51
2023-02-12T06:15:09.067Z,41.54
2023-02-12T06:16:40.910Z,41.62
2023-02-12T06:18:12.495Z,41.81
2023-02-12T06:19:44.003Z,41.18
2023-02-12T06:21:15.830Z,41.21
2023-02-12T06:22:47.384Z,41.04
2023-02-12T06:24:19.064Z,41.25
2023-02-12T06:25:51.057Z,41.00
2023-02-12T06:27:22.615Z,41.09
2023-02-12T06:36:20.709Z,41.63
2023-02-12T06:40:07.518Z,41.63
2023-02-12T06:41:49.930Z,41.77
2023-02-12T06:43:30.771Z,41.68
2023-02-12T06:47:44.877Z,41.84
2023-02-12T06:49:14.749Z,41.94
2023-02-12T06:50:46.420Z,42.03
2023-02-12T06:52:18.745Z,42.10
2023-02-12T06:53:51.292Z,42.09
2023-02-12T06:55:22.857Z,42.06
2023-02-12T06:56:54.520Z,42.01
2023-02-12T06:58:26.044Z,41.84
2023-02-12T06:59:57.695Z,42.01
2023-02-12T07:01:29.641Z,41.94
2023-02-12T07:03:01.220Z,42.10
2023-02-12T07:05:18.634Z,41.85
2023-02-12T07:06:50.624Z,41.97
2023-02-12T07:10:25.713Z,42.26
2023-02-12T07:12:10.853Z,42.44
2023-02-12T07:13:48.741Z,42.66
2023-02-12T07:15:38.490Z,42.80
2023-02-12T07:17:30.261Z,43.17
2023-02-12T07:19:01.854Z,43.00
2023-02-12T07:20:33.864Z,42.98
2023-02-12T07:22:05.465Z,43.25
2023-02-12T07:23:37.032Z,43.20
2023-02-12T07:25:08.734Z,42.90
2023-02-12T07:26:40.766Z,42.85
2023-02-12T07:28:12.386Z,42.77
2023-02-12T07:29:44.512Z,43.33
2023-02-12T07:31:17.240Z,43.15
2023-02-12T07:32:49.023Z,43.15
2023-02-12T07:34:21.055Z,43.10
2023-02-12T07:35:52.793Z,43.08
2023-02-12T07:37:24.350Z,42.60
2023-02-12T07:38:56.210Z,42.75
2023-02-12T07:40:27.815Z,43.12
2023-02-12T07:41:59.496Z,43.24
2023-02-12T07:43:31.074Z,43.20
2023-02-12T07:45:03.108Z,43.19
2023-02-12T07:46:35.753Z,43.41
2023-02-12T07:48:07.418Z,43.35
2023-02-12T07:49:39.224Z,43.31
2023-02-12T07:51:11.498Z,43.30
2023-02-12T07:52:43.082Z,43.37
2023-02-12T07:54:14.770Z,43.47
2023-02-12T07:55:46.795Z,43.60
2023-02-12T07:57:18.468Z,43.11
2023-02-12T07:58:50.753Z,43.37
2023-02-12T08:00:22.591Z,43.44
2023-02-12T08:01:54.270Z,43.23
2023-02-12T08:03:27.635Z,43.51
2023-02-12T08:04:59.427Z,43.61
2023-02-12T08:06:31.909Z,43.38
2023-02-12T08:08:03.483Z,43.47
2023-02-12T08:09:35.104Z,43.34
2023-02-12T08:11:08.217Z,43.71
2023-02-12T08:12:39.821Z,43.17
2023-02-12T08:14:11.861Z,43.32
2023-02-12T08:15:43.551Z,43.62
2023-02-12T08:17:15.389Z,43.80
2023-02-12T08:18:47.140Z,43.47
2023-02-12T08:20:19.105Z,43.68
2023-02-12T08:21:51.686Z,43.58
2023-02-12T08:23:23.466Z,43.57
2023-02-12T08:24:55.010Z,43.70
2023-02-12T08:26:29.024Z,43.37
2023-02-12T08:28:00.625Z,44.03
2023-02-12T08:29:32.257Z,44.14
2023-02-12T08:31:04.797Z,44.14
2023-02-12T08:32:36.536Z,43.86
2023-02-12T08:34:08.132Z,43.87
2023-02-12T08:35:39.758Z,43.31
2023-02-12T08:37:11.514Z,43.61
2023-02-12T08:38:43.405Z,43.57
2023-02-12T08:40:15.105Z,43.64
2023-02-12T08:41:47.504Z,43.90
2023-02-12T08:43:19.416Z,44.13
2023-02-12T08:44:51.479Z,43.90
2023-02-12T08:46:23.892Z,43.74
2023-02-12T08:47:56.638Z,44.31
2023-02-12T08:49:28.917Z,44.21
2023-02-12T08:51:04.483Z,44.14
2023-02-12T08:52:36.095Z,43.85
2023-02-12T08:54:08.349Z,44.26
2023-02-12T08:55:39.979Z,44.30
2023-02-12T08:57:11.494Z,44.05
2023-02-12T08:58:43.173Z,44.17
2023-02-12T09:00:14.922Z,44.58
2023-02-12T09:01:46.712Z,44.54
2023-02-12T09:03:18.599Z,44.32
2023-02-12T09:04:56.836Z,44.48
2023-02-12T09:06:28.444Z,44.30
2023-02-12T09:08:00.112Z,44.38
2023-02-12T09:09:31.659Z,44.67
2023-02-12T09:11:10.089Z,44.34
2023-02-12T09:12:42.076Z,44.80
2023-02-12T09:14:14.852Z,44.56
2023-02-12T09:15:47.243Z,45.15
2023-02-12T09:17:18.790Z,45.08
2023-02-12T09:18:50.307Z,44.87
2023-02-12T09:20:21.889Z,44.61
2023-02-12T09:21:55.818Z,44.73
2023-02-12T09:23:27.819Z,45.13
2023-02-12T09:24:59.368Z,44.83
2023-02-12T09:26:31.213Z,45.13
2023-02-12T09:28:02.839Z,44.83
2023-02-12T09:29:34.498Z,45.28
2023-02-12T09:31:09.779Z,44.98
2023-02-12T09:32:41.504Z,44.95
2023-02-12T09:34:13.116Z,45.35
2023-02-12T09:35:45.117Z,45.21
2023-02-12T09:37:16.726Z,45.24
2023-02-12T09:38:49.300Z,44.89
2023-02-12T09:40:26.846Z,44.98
2023-02-12T09:41:59.009Z,45.39
2023-02-12T09:43:44.495Z,45.00
2023-02-12T09:45:22.807Z,44.82
2023-02-12T09:47:01.893Z,45.36
2023-02-12T09:48:42.315Z,45.29
2023-02-12T09:50:33.913Z,45.13
2023-02-12T09:52:05.482Z,45.42
2023-02-12T09:53:38.965Z,45.42
2023-02-12T09:55:17.010Z,45.26
2023-02-12T09:56:58.746Z,45.18
2023-02-12T09:58:30.988Z,45.47
2023-02-12T10:00:06.985Z,45.63
2023-02-12T10:01:38.879Z,45.52
2023-02-12T10:03:12.899Z,45.34
2023-02-12T10:04:59.741Z,45.70
2023-02-12T10:06:41.946Z,45.70
2023-02-12T10:08:26.225Z,45.62
2023-02-12T10:09:57.862Z,45.43
2023-02-12T10:11:38.305Z,45.67
2023-02-12T10:13:15.628Z,45.38
2023-02-12T10:14:47.272Z,45.52
2023-02-12T10:16:26.139Z,45.52
2023-02-12T10:18:06.675Z,45.80
2023-02-12T10:20:01.576Z,46.00
2023-02-12T10:21:41.214Z,45.60
2023-02-12T10:23:31.804Z,45.47
2023-02-12T10:25:07.278Z,46.09
2023-02-12T10:26:42.729Z,45.56
2023-02-12T10:28:19.647Z,45.78
2023-02-12T10:29:51.309Z,46.13
2023-02-12T10:31:30.379Z,45.96
2023-02-12T10:33:07.399Z,45.80
2023-02-12T10:34:39.173Z,45.55
2023-02-12T10:36:16.662Z,46.04
2023-02-12T10:37:48.361Z,45.98
2023-02-12T10:39:24.502Z,45.91
2023-02-12T10:40:58.224Z,45.60
2023-02-12T10:42:32.675Z,45.80
2023-02-12T10:44:04.484Z,45.82
2023-02-12T10:45:40.239Z,45.88
2023-02-12T10:47:34.736Z,46.16
2023-02-12T10:49:06.823Z,46.13
2023-02-12T10:50:56.801Z,45.87
2023-02-12T10:52:31.496Z,45.99
2023-02-12T10:54:23.686Z,46.13
2023-02-12T10:56:13.430Z,46.09
2023-02-12T10:57:45.224Z,46.00
2023-02-12T10:59:22.677Z,46.28
2023-02-12T11:01:01.022Z,46.24
2023-02-12T11:02:33.927Z,46.27
2023-02-12T11:04:20.813Z,46.17
2023-02-12T11:05:56.038Z,46.25
2023-02-12T11:07:28.065Z,46.35
2023-02-12T11:09:07.072Z,46.65
2023-02-12T11:10:48.014Z,46.40
2023-02-12T11:12:25.634Z,46.22
2023-02-12T11:13:57.135Z,46.40
2023-02-12T11:15:31.412Z,46.45
2023-02-12T11:17:03.255Z,46.47
2023-02-12T11:18:36.892Z,46.34
2023-02-12T11:20:17.447Z,46.23
2023-02-12T11:21:50.201Z,46.13
2023-02-12T11:23:42.037Z,46.19
2023-02-12T11:25:16.074Z,46.13
2023-02-12T11:26:47.969Z,46.02
2023-02-12T11:28:19.732Z,45.81
2023-02-12T11:30:10.435Z,46.07
2023-02-12T11:33:38.905Z,46.41
2023-02-12T11:35:15.074Z,46.69
2023-02-12T11:36:50.585Z,46.56
2023-02-12T11:38:26.558Z,46.62
2023-02-12T11:40:01.267Z,46.70
2023-02-12T11:41:46.297Z,46.74
2023-02-12T11:43:17.795Z,46.82
2023-02-12T11:44:56.251Z,46.74
2023-02-12T11:46:28.044Z,46.71
2023-02-12T11:47:59.677Z,46.80
2023-02-12T11:49:32.580Z,46.84
2023-02-12T11:51:11.795Z,46.92
2023-02-12T11:52:43.877Z,46.84
2023-02-12T11:54:25.612Z,46.72
2023-02-12T11:55:58.444Z,46.67
2023-02-12T11:57:36.078Z,46.95
2023-02-12T11:59:12.359Z,46.63
2023-02-12T12:00:50.467Z,46.76
2023-02-12T12:02:27.730Z,46.97
2023-02-12T12:04:00.926Z,47.04
2023-02-12T12:05:35.572Z,46.94
2023-02-12T12:07:24.659Z,46.73
2023-02-12T12:09:07.519Z,46.83
2023-02-12T12:10:59.081Z,46.39
2023-02-12T12:12:37.890Z,46.67
2023-02-12T12:14:09.462Z,46.75
2023-02-12T12:16:02.415Z,46.79
2023-02-12T12:18:15.713Z,46.87
2023-02-12T12:19:56.079Z,47.09
2023-02-12T12:21:39.387Z,47.06
2023-02-12T12:23:18.712Z,47.13
2023-02-12T12:27:40.138Z,46.96
2023-02-12T12:29:27.990Z,47.09
2023-02-12T12:31:03.915Z,46.55
2023-02-12T12:32:36.341Z,46.83
2023-02-12T12:34:07.874Z,46.39
2023-02-12T12:35:43.608Z,46.70
2023-02-12T12:37:18.131Z,46.80
2023-02-12T12:39:02.094Z,46.38
2023-02-12T12:40:43.093Z,46.76
2023-02-12T12:42:45.045Z,46.68
2023-02-12T12:44:25.954Z,46.90
2023-02-12T12:46:00.971Z,46.80
2023-02-12T12:47:56.016Z,46.73
2023-02-12T12:49:30.696Z,46.63
2023-02-12T12:51:07.364Z,46.65
2023-02-12T12:52:42.029Z,46.43
2023-02-12T12:54:31.868Z,46.79
2023-02-12T12:56:12.234Z,46.62
2023-02-12T12:57:58.772Z,46.66
2023-02-12T12:59:49.159Z,46.17
2023-02-12T13:01:24.156Z,46.63
2023-02-12T13:05:05.946Z,46.35
2023-02-12T13:07:00.744Z,46.72
2023-02-12T13:08:41.890Z,46.16
2023-02-12T13:10:25.656Z,46.21
2023-02-12T13:12:12.062Z,45.86
2023-02-12T13:13:45.217Z,46.08
2023-02-12T13:15:22.764Z,45.97
2023-02-12T13:17:04.138Z,46.51
2023-02-12T13:18:54.022Z,46.75
2023-02-12T13:20:53.048Z,46.55
2023-02-12T13:24:29.065Z,45.86
2023-02-12T13:26:04.303Z,46.21
2023-02-12T13:28:07.027Z,46.45
2023-02-12T13:29:39.423Z,46.49
2023-02-12T13:31:33.131Z,46.36
2023-02-12T13:33:19.740Z,46.00
2023-02-12T13:34:52.090Z,45.76
2023-02-12T13:36:26.658Z,45.72
2023-02-12T13:37:58.289Z,45.78
2023-02-12T13:39:55.055Z,45.89
2023-02-12T13:41:27.220Z,45.74
2023-02-12T13:42:58.773Z,46.15
2023-02-12T13:44:51.924Z,46.13
2023-02-12T13:46:46.894Z,46.00
2023-02-12T13:48:45.977Z,45.94
2023-02-12T13:50:53.364Z,45.73
2023-02-12T13:52:47.898Z,45.89
2023-02-12T13:54:22.494Z,45.98
2023-02-12T13:55:57.473Z,45.85
2023-02-12T13:57:31.868Z,45.90
2023-02-12T13:59:03.550Z,45.79
2023-02-12T14:01:04.960Z,46.43
2023-02-12T14:02:39.624Z,46.70
2023-02-12T14:04:41.984Z,45.86
2023-02-12T14:06:13.863Z,45.82
2023-02-12T14:07:45.858Z,46.34
2023-02-12T14:09:19.159Z,45.99
2023-02-12T14:11:05.776Z,46.77
2023-02-12T14:12:40.554Z,45.90
2023-02-12T14:14:14.353Z,46.11
2023-02-12T14:15:47.668Z,46.56
2023-02-12T14:17:31.571Z,46.15
2023-02-12T14:19:24.988Z,46.43
2023-02-12T14:21:18.231Z,45.73
2023-02-12T14:23:09.169Z,46.31
2023-02-12T14:24:49.260Z,45.91
2023-02-12T14:26:22.009Z,45.83
2023-02-12T14:28:34.703Z,45.99
2023-02-12T14:30:09.946Z,45.80
2023-02-12T14:31:47.249Z,45.84
2023-02-12T14:33:25.265Z,45.78
2023-02-12T14:34:59.405Z,45.63
2023-02-12T14:36:35.777Z,45.75
2023-02-12T14:38:10.514Z,46.19
2023-02-12T14:39:44.740Z,45.92
2023-02-12T14:41:47.408Z,46.12
2023-02-12T14:44:06.260Z,45.85
2023-02-12T14:48:07.571Z,45.99
2023-02-12T14:49:40.227Z,46.12
2023-02-12T14:51:45.648Z,45.76
2023-02-12T14:53:23.148Z,45.83
2023-02-12T14:55:01.203Z,46.10
2023-02-12T14:56:33.669Z,46.60
2023-02-12T14:58:16.484Z,46.31
2023-02-12T14:59:49.044Z,46.30
2023-02-12T15:01:25.801Z,46.07
2023-02-12T15:03:16.278Z,46.76
2023-02-12T15:04:50.475Z,46.56
2023-02-12T15:06:25.469Z,46.43
2023-02-12T15:08:03.879Z,46.27
2023-02-12T15:09:37.225Z,46.36
2023-02-12T15:11:11.856Z,46.60
2023-02-12T15:12:55.322Z,46.40
2023-02-12T15:14:49.907Z,46.55
2023-02-12T15:16:30.480Z,46.38
2023-02-12T15:18:28.424Z,46.47
2023-02-12T15:22:05.190Z,46.18
2023-02-12T15:24:03.330Z,46.07
2023-02-12T15:25:34.949Z,46.24
2023-02-12T15:27:15.210Z,46.23
2023-02-12T15:28:53.847Z,46.34
2023-02-12T15:30:33.348Z,46.31
2023-02-12T15:32:06.183Z,46.16
2023-02-12T15:33:53.392Z,46.29
2023-02-12T15:35:26.766Z,46.43
2023-02-12T15:37:01.865Z,46.51
2023-02-12T15:38:49.275Z,46.51
2023-02-12T15:40:20.907Z,46.60
2023-02-12T15:44:02.639Z,46.64
2023-02-12T15:45:35.131Z,46.30
2023-02-12T15:47:44.157Z,46.44
2023-02-12T15:49:19.650Z,46.38
2023-02-12T15:50:56.075Z,46.44
2023-02-12T15:52:45.563Z,46.52
2023-02-12T15:54:21.593Z,46.57
2023-02-12T15:55:53.331Z,46.34
2023-02-12T15:57:34.686Z,46.24
2023-02-12T16:01:40.935Z,46.40
2023-02-12T16:03:27.308Z,46.19
2023-02-12T16:04:59.172Z,46.38
2023-02-12T16:06:42.580Z,46.53
2023-02-12T16:08:14.946Z,46.53
2023-02-12T16:09:46.723Z,46.69
2023-02-12T16:11:20.036Z,46.70
2023-02-12T16:12:54.234Z,46.63
2023-02-12T16:14:32.442Z,46.56
2023-02-12T16:16:13.221Z,46.52
2023-02-12T16:17:47.584Z,46.82
2023-02-12T16:19:23.613Z,46.80
2023-02-12T16:21:21.459Z,46.90
2023-02-12T16:24:39.581Z,47.17
2023-02-12T16:26:37.624Z,46.99
2023-02-12T16:28:22.607Z,46.87
2023-02-12T16:30:03.394Z,47.31
2023-02-12T16:31:37.877Z,46.88
2023-02-12T16:33:38.746Z,46.86
2023-02-12T16:35:19.544Z,47.00
2023-02-12T16:37:00.125Z,46.82
2023-02-12T16:38:44.694Z,46.69
2023-02-12T16:40:16.246Z,46.73
2023-02-12T16:41:58.866Z,46.92
2023-02-12T16:43:34.762Z,47.27
2023-02-12T16:45:30.569Z,46.74
2023-02-12T16:47:02.227Z,46.86
2023-02-12T16:48:38.519Z,47.38
2023-02-12T16:50:14.497Z,47.23
2023-02-12T16:51:48.876Z,47.05
2023-02-12T16:53:35.980Z,47.24
2023-02-12T16:55:16.200Z,47.04
2023-02-12T16:56:47.788Z,47.11
2023-02-12T16:58:19.350Z,47.25
2023-02-12T16:59:50.963Z,47.14
2023-02-12T17:01:40.801Z,47.32
2023-02-12T17:03:18.231Z,47.45
2023-02-12T17:04:49.969Z,47.15
2023-02-12T17:06:22.832Z,47.33
2023-02-12T17:07:56.716Z,46.88
2023-02-12T17:09:30.299Z,47.31
2023-02-12T17:11:10.844Z,47.16
2023-02-12T17:13:00.658Z,47.15
2023-02-12T17:14:35.165Z,47.35
2023-02-12T17:16:09.030Z,47.62
2023-02-12T17:17:41.415Z,47.39
2023-02-12T17:19:13.211Z,47.45
2023-02-12T17:20:45.931Z,47.44
2023-02-12T17:22:20.013Z,47.06
2023-02-12T17:23:53.950Z,47.00
2023-02-12T17:25:25.833Z,46.94
2023-02-12T17:26:57.955Z,46.77
2023-02-12T17:28:33.936Z,47.37
2023-02-12T17:30:07.247Z,47.58
2023-02-12T17:31:41.979Z,47.50
2023-02-12T17:33:19.596Z,47.66
2023-02-12T17:34:54.457Z,47.65
2023-02-12T17:36:29.486Z,47.13
2023-02-12T17:38:01.012Z,47.41
2023-02-12T17:39:32.555Z,47.84
2023-02-12T17:41:13.298Z,47.42
2023-02-12T17:42:47.780Z,47.67
2023-02-12T17:44:24.936Z,47.53
2023-02-12T17:45:56.621Z,47.00
2023-02-12T17:47:30.163Z,47.68
2023-02-12T17:49:01.766Z,47.85
2023-02-12T17:50:35.632Z,47.70
2023-02-12T17:52:07.575Z,47.73
2023-02-12T17:53:42.127Z,47.64
2023-02-12T17:55:19.708Z,47.40
2023-02-12T17:56:54.181Z,47.56
2023-02-12T17:58:28.595Z,47.09
2023-02-12T18:00:00.150Z,47.38
2023-02-12T18:01:31.800Z,47.48
2023-02-12T18:03:06.624Z,47.18
2023-02-12T18:04:38.365Z,47.81
2023-02-12T18:06:11.151Z,47.35
2023-02-12T18:07:43.219Z,47.71
2023-02-12T18:09:18.469Z,47.76
2023-02-12T18:10:50.409Z,47.72
2023-02-12T18:12:24.502Z,47.80
2023-02-12T18:13:59.372Z,47.90
2023-02-12T18:15:40.144Z,48.46
2023-02-12T18:17:11.822Z,48.50
2023-02-12T18:18:43.755Z,47.98
2023-02-12T18:20:15.275Z,47.88
2023-02-12T18:21:47.790Z,47.96
2023-02-12T18:23:19.300Z,47.83
2023-02-12T18:24:50.877Z,47.70
2023-02-12T18:26:22.393Z,48.03
2023-02-12T18:27:53.996Z,47.87
2023-02-12T18:29:25.605Z,48.38
2023-02-12T18:30:57.780Z,48.79
2023-02-12T18:32:29.450Z,48.67
2023-02-12T18:34:00.947Z,48.18
2023-02-12T18:35:32.898Z,48.86
2023-02-12T18:37:04.522Z,48.12
2023-02-12T18:38:36.543Z,48.87
2023-02-12T18:40:08.467Z,48.51
2023-02-12T18:41:39.995Z,48.53
2023-02-12T18:43:11.510Z,48.77
2023-02-12T18:44:43.141Z,48.57
2023-02-12T18:46:25.438Z,48.25
2023-02-12T18:47:57.135Z,48.53
2023-02-12T18:49:28.849Z,48.87
2023-02-12T18:51:01.194Z,48.70
2023-02-12T18:52:32.769Z,48.48
2023-02-12T18:54:07.970Z,48.17
2023-02-12T18:55:39.622Z,48.11
2023-02-12T18:57:11.225Z,48.65
2023-02-12T18:58:42.757Z,48.15
2023-02-12T19:00:14.481Z,47.91
2023-02-12T19:01:47.385Z,48.59
2023-02-12T19:03:18.982Z,48.36
2023-02-12T19:04:50.529Z,48.47
2023-02-12T19:06:22.559Z,48.29
2023-02-12T19:07:54.100Z,48.66
2023-02-12T19:09:25.896Z,48.12
2023-02-12T19:10:57.790Z,48.79
2023-02-12T19:12:29.551Z,48.87
2023-02-12T19:14:01.113Z,48.73
2023-02-12T19:15:32.890Z,48.79
2023-02-12T19:17:04.404Z,48.91
2023-02-12T19:18:35.921Z,48.72
2023-02-12T19:20:08.003Z,48.95
2023-02-12T19:21:39.721Z,49.05
2023-02-12T19:23:11.186Z,49.15
2023-02-12T19:24:46.898Z,49.09
2023-02-12T19:26:18.826Z,49.02
2023-02-12T19:27:50.285Z,49.07
2023-02-12T19:29:21.832Z,49.15
2023-02-12T19:30:53.648Z,48.92
2023-02-12T19:32:25.307Z,48.80
2023-02-12T19:33:57.836Z,49.02
2023-02-12T19:35:29.859Z,48.79
2023-02-12T19:37:01.685Z,48.79
2023-02-12T19:38:34.820Z,48.89
2023-02-12T19:40:06.633Z,48.72
2023-02-12T19:41:41.157Z,49.01
2023-02-12T19:43:12.776Z,49.01
2023-02-12T19:44:44.657Z,49.48
2023-02-12T19:46:17.392Z,49.34
2023-02-12T19:47:50.844Z,49.14
2023-02-12T19:49:23.131Z,49.33
2023-02-12T19:50:55.066Z,49.12
2023-02-12T19:52:26.886Z,49.34
2023-02-12T19:54:01.810Z,48.91
2023-02-12T19:55:35.236Z,49.34
2023-02-12T19:57:09.325Z,49.56
2023-02-12T19:58:40.892Z,49.71
2023-02-12T20:00:12.789Z,49.70
2023-02-12T20:01:44.955Z,49.48
2023-02-12T20:03:18.170Z,49.78
2023-02-12T20:04:49.722Z,49.63
2023-02-12T20:06:22.423Z,49.70
2023-02-12T20:07:53.946Z,49.46
2023-02-12T20:09:25.640Z,49.60
2023-02-12T20:10:57.401Z,49.21
2023-02-12T20:12:29.164Z,49.53
2023-02-12T20:14:03.982Z,49.35
2023-02-12T20:15:37.011Z,49.66
2023-02-12T20:17:08.638Z,48.61
2023-02-12T20:18:40.189Z,49.32
2023-02-12T20:20:12.017Z,48.90
2023-02-12T20:21:43.714Z,49.21
2023-02-12T20:23:15.207Z,48.94
2023-02-12T20:24:47.153Z,49.10
2023-02-12T20:26:19.723Z,48.94
2023-02-12T20:27:51.241Z,49.01
2023-02-12T20:29:22.857Z,49.08
2023-02-12T20:30:54.998Z,49.40
2023-02-12T20:32:26.853Z,49.53
2023-02-12T20:33:59.589Z,49.73
2023-02-12T20:35:31.615Z,49.20
2023-02-12T20:37:04.472Z,49.23
2023-02-12T20:38:36.047Z,49.06
2023-02-12T20:40:07.767Z,49.30
2023-02-12T20:41:39.375Z,49.41
2023-02-12T20:43:11.007Z,48.93
2023-02-12T20:44:42.618Z,49.02
2023-02-12T20:46:15.094Z,49.26
2023-02-12T20:47:46.994Z,49.51
2023-02-12T20:49:18.600Z,49.07
2023-02-12T20:50:50.101Z,49.63
2023-02-12T20:52:21.886Z,49.42
2023-02-12T20:53:54.225Z,49.34
2023-02-12T20:55:25.731Z,49.60
2023-02-12T20:56:57.232Z,49.55
2023-02-12T20:58:29.204Z,49.70
2023-02-12T21:00:01.306Z,49.61
2023-02-12T21:01:34.866Z,49.69
2023-02-12T21:03:06.512Z,50.00
2023-02-12T21:04:38.108Z,49.52
2023-02-12T21:06:09.786Z,49.59
2023-02-12T21:07:41.456Z,49.52